Airport View

Enter AWOS ICAO identifier for current METAR.

ex. KFNL

KHLX 300505Z AUTO 30010G15KT 10SM SCT036 09/09 A2984 RMK AO2 T00900085

1 Oct 2020 12:17

Frequency: 118.375

Phone: 276-728-5897

Other Area AWOS: KMWK - KPSK - KMKJ - KBCB

TAF KBCB 011120Z 0112/0212 VRB03KT P6SM SCT040 FM011600 28007KT P6SM SCT040 BKN100 FM020000 29007KT P6SM BKN045 FM020900 VRB03KT P6SM SCT120